createdAt,value
2023-04-02T00:00:05.078Z,32.48
2023-04-02T00:02:49.293Z,32.57
2023-04-02T00:05:30.308Z,32.40
2023-04-02T00:08:26.488Z,32.51
2023-04-02T00:10:57.897Z,32.76
2023-04-02T00:13:29.554Z,32.50
2023-04-02T00:15:57.771Z,32.58
2023-04-02T00:18:24.516Z,32.44
2023-04-02T00:21:11.373Z,32.65
2023-04-02T00:23:41.850Z,32.49
2023-04-02T00:26:29.092Z,32.42
2023-04-02T00:28:55.615Z,32.94
2023-04-02T00:31:22.348Z,32.81
2023-04-02T00:33:49.433Z,32.89
2023-04-02T00:36:16.124Z,32.72
2023-04-02T00:38:43.832Z,32.94
2023-04-02T00:41:17.135Z,32.86
2023-04-02T00:43:44.645Z,32.79
2023-04-02T00:46:14.574Z,32.84
2023-04-02T00:49:03.799Z,32.93
2023-04-02T00:51:57.540Z,32.89
2023-04-02T00:54:25.662Z,32.88
2023-04-02T00:56:54.321Z,32.74
2023-04-02T00:59:31.649Z,32.83
2023-04-02T01:02:19.953Z,32.76
2023-04-02T01:04:57.310Z,32.79
2023-04-02T01:07:37.419Z,32.69
2023-04-02T01:10:03.875Z,32.81
2023-04-02T01:12:56.387Z,32.73
2023-04-02T01:15:27.492Z,32.87
2023-04-02T01:18:03.273Z,32.86
2023-04-02T01:20:53.717Z,32.72
2023-04-02T01:23:32.339Z,32.64
2023-04-02T01:26:08.800Z,32.72
2023-04-02T01:29:08.769Z,32.66
2023-04-02T01:31:35.587Z,32.85
2023-04-02T01:34:02.747Z,32.86
2023-04-02T01:36:44.868Z,33.03
2023-04-02T01:39:27.076Z,33.05
2023-04-02T01:42:18.265Z,33.08
2023-04-02T01:44:52.356Z,33.07
2023-04-02T01:47:24.465Z,32.90
2023-04-02T01:49:53.301Z,33.10
2023-04-02T01:52:26.869Z,33.05
2023-04-02T01:54:53.549Z,32.82
2023-04-02T01:57:20.890Z,32.94
2023-04-02T01:59:47.564Z,32.96
2023-04-02T02:02:14.314Z,33.11
2023-04-02T02:04:42.543Z,32.75
2023-04-02T02:07:16.860Z,33.07
2023-04-02T02:09:46.840Z,32.74
2023-04-02T02:12:14.186Z,32.76
2023-04-02T02:14:46.534Z,32.83
2023-04-02T02:17:16.114Z,32.73
2023-04-02T02:19:46.191Z,32.98
2023-04-02T02:22:35.115Z,32.87
2023-04-02T02:25:11.907Z,32.70
2023-04-02T02:28:05.755Z,32.74
2023-04-02T02:30:35.610Z,32.75
2023-04-02T02:33:21.950Z,32.68
2023-04-02T02:36:05.465Z,32.64
2023-04-02T02:38:42.886Z,32.76
2023-04-02T02:41:42.252Z,32.71
2023-04-02T02:44:09.633Z,32.63
2023-04-02T02:46:39.503Z,32.82
2023-04-02T02:49:09.218Z,32.84
2023-04-02T02:51:52.455Z,32.83
2023-04-02T02:54:26.316Z,32.82
2023-04-02T02:56:55.831Z,32.68
2023-04-02T02:59:22.575Z,32.79
2023-04-02T03:01:49.292Z,32.88
2023-04-02T03:04:22.467Z,32.87
2023-04-02T03:06:53.706Z,32.84
2023-04-02T03:09:34.521Z,32.89
2023-04-02T03:12:19.934Z,32.64
2023-04-02T03:14:53.473Z,32.61
2023-04-02T03:17:23.860Z,32.68
2023-04-02T03:19:55.025Z,32.84
2023-04-02T03:22:46.219Z,33.12
2023-04-02T03:25:48.310Z,32.90
2023-04-02T03:28:27.665Z,33.12
2023-04-02T03:31:04.158Z,33.18
2023-04-02T03:33:42.186Z,32.76
2023-04-02T03:36:46.593Z,32.94
2023-04-02T03:39:44.943Z,32.98
2023-04-02T03:42:21.705Z,32.87
2023-04-02T03:45:15.517Z,32.77
2023-04-02T03:47:45.150Z,32.89
2023-04-02T03:50:17.334Z,32.84
2023-04-02T03:52:44.281Z,32.73
2023-04-02T03:55:28.802Z,33.04
2023-04-02T03:58:24.801Z,32.93
2023-04-02T04:01:13.943Z,32.94
2023-04-02T04:04:07.251Z,33.07
2023-04-02T04:06:33.968Z,32.95
2023-04-02T04:09:11.015Z,32.85
2023-04-02T04:11:45.848Z,32.83
2023-04-02T04:14:19.300Z,32.92
2023-04-02T04:17:05.553Z,32.88
2023-04-02T04:19:45.486Z,32.93
2023-04-02T04:22:33.591Z,32.72
2023-04-02T04:25:29.527Z,33.22
2023-04-02T04:28:18.474Z,32.85
2023-04-02T04:30:52.871Z,33.01
2023-04-02T04:33:24.416Z,32.88
2023-04-02T04:35:59.490Z,33.06
2023-04-02T04:38:32.755Z,33.07
2023-04-02T04:41:06.403Z,33.30
2023-04-02T04:43:44.554Z,32.98
2023-04-02T04:46:14.938Z,32.96
2023-04-02T04:49:00.329Z,33.00
2023-04-02T04:51:32.179Z,32.97
2023-04-02T04:53:59.423Z,33.23
2023-04-02T04:56:30.038Z,33.31
2023-04-02T04:59:29.566Z,33.08
2023-04-02T05:02:15.081Z,33.19
2023-04-02T05:04:43.550Z,33.14
2023-04-02T05:07:23.872Z,33.02
2023-04-02T05:10:12.453Z,33.04
2023-04-02T05:12:44.516Z,33.07
2023-04-02T05:15:33.309Z,32.69
2023-04-02T05:18:13.846Z,32.97
2023-04-02T05:20:45.933Z,33.14
2023-04-02T05:23:20.037Z,33.09
2023-04-02T05:26:11.149Z,33.39
2023-04-02T05:28:52.749Z,33.16
2023-04-02T05:31:27.975Z,33.20
2023-04-02T05:33:56.245Z,33.37
2023-04-02T05:36:26.314Z,33.50
2023-04-02T05:38:56.829Z,33.47
2023-04-02T05:41:38.310Z,33.54
2023-04-02T05:44:26.967Z,33.47
2023-04-02T05:47:14.656Z,33.26
2023-04-02T05:50:07.476Z,33.28
2023-04-02T05:52:42.383Z,33.30
2023-04-02T05:55:12.312Z,33.38
2023-04-02T05:57:52.843Z,33.36
2023-04-02T06:00:41.595Z,33.49
2023-04-02T06:03:39.220Z,33.31
2023-04-02T06:06:43.629Z,33.37
2023-04-02T06:09:16.041Z,33.27
2023-04-02T06:11:46.251Z,33.48
2023-04-02T06:14:16.496Z,33.35
2023-04-02T06:16:45.006Z,33.36
2023-04-02T06:19:16.733Z,33.09
2023-04-02T06:21:49.838Z,33.33
2023-04-02T06:24:21.831Z,33.36
2023-04-02T06:26:52.229Z,33.05
2023-04-02T06:29:30.882Z,33.42
2023-04-02T06:31:59.981Z,33.27
2023-04-02T06:34:30.480Z,33.34
2023-04-02T06:37:14.144Z,33.14
2023-04-02T06:39:44.194Z,33.26
2023-04-02T06:42:17.987Z,33.26
2023-04-02T06:45:07.141Z,33.25
2023-04-02T06:47:34.449Z,33.50
2023-04-02T06:50:26.495Z,33.69
2023-04-02T06:52:58.555Z,33.60
2023-04-02T06:55:46.583Z,33.60
2023-04-02T06:58:16.468Z,33.53
2023-04-02T07:00:45.853Z,33.56
2023-04-02T07:03:23.724Z,33.61
2023-04-02T07:05:51.741Z,33.46
2023-04-02T07:08:18.518Z,33.59
2023-04-02T07:10:45.128Z,33.54
2023-04-02T07:13:18.512Z,33.34
2023-04-02T07:15:46.201Z,33.44
2023-04-02T07:18:34.663Z,33.47
2023-04-02T07:21:04.854Z,33.32
2023-04-02T07:23:31.677Z,33.04
2023-04-02T07:25:58.529Z,32.83
2023-04-02T07:28:25.443Z,33.09
2023-04-02T07:30:52.140Z,33.48
2023-04-02T07:33:21.479Z,33.53
2023-04-02T07:35:48.181Z,33.31
2023-04-02T07:38:14.822Z,33.16
2023-04-02T07:40:41.407Z,33.17
2023-04-02T07:43:08.081Z,33.06
2023-04-02T07:45:34.783Z,33.13
2023-04-02T07:48:08.289Z,33.22
2023-04-02T07:50:34.865Z,33.17
2023-04-02T07:53:01.477Z,33.39
2023-04-02T07:55:28.053Z,33.57
2023-04-02T07:57:58.444Z,34.25
2023-04-02T08:00:25.759Z,33.94
2023-04-02T08:02:52.640Z,34.27
2023-04-02T08:05:19.485Z,34.21
2023-04-02T08:07:53.360Z,34.25
2023-04-02T08:10:19.994Z,34.01
2023-04-02T08:12:46.626Z,34.29
2023-04-02T08:15:16.596Z,34.52
2023-04-02T08:17:43.360Z,34.39
2023-04-02T08:20:15.208Z,34.31
2023-04-02T08:22:41.779Z,34.35
2023-04-02T08:25:09.751Z,34.33
2023-04-02T08:27:36.389Z,34.44
2023-04-02T08:30:03.131Z,34.45
2023-04-02T08:32:29.686Z,34.07
2023-04-02T08:34:56.350Z,33.91
2023-04-02T08:37:22.908Z,33.76
2023-04-02T08:39:49.464Z,33.92
2023-04-02T08:42:44.953Z,33.91
2023-04-02T08:45:25.841Z,34.02
2023-04-02T08:47:55.137Z,34.44
2023-04-02T08:50:24.666Z,35.59
2023-04-02T08:52:51.310Z,35.31
2023-04-02T08:55:27.137Z,35.36
2023-04-02T08:58:15.650Z,35.19
2023-04-02T09:00:44.152Z,34.96
2023-04-02T09:03:16.393Z,34.87
2023-04-02T09:05:43.350Z,34.62
2023-04-02T09:08:19.852Z,34.80
2023-04-02T09:11:26.098Z,34.60
2023-04-02T09:13:58.408Z,34.29
2023-04-02T09:16:49.704Z,34.21
2023-04-02T09:19:22.428Z,33.71
2023-04-02T09:22:19.332Z,33.48
2023-04-02T09:24:45.978Z,33.48
2023-04-02T09:27:19.281Z,33.14
2023-04-02T09:29:47.528Z,33.39
2023-04-02T09:32:34.247Z,33.03
2023-04-02T09:35:25.581Z,32.27
2023-04-02T09:38:16.379Z,32.31
2023-04-02T09:41:09.693Z,32.42
2023-04-02T09:43:37.502Z,32.57
2023-04-02T09:46:18.812Z,32.59
2023-04-02T09:48:50.060Z,32.83
2023-04-02T09:51:20.250Z,32.86
2023-04-02T09:53:51.419Z,33.13
2023-04-02T09:56:23.115Z,33.30
2023-04-02T09:59:15.579Z,33.35
2023-04-02T10:01:44.491Z,33.27
2023-04-02T10:04:46.781Z,33.34
2023-04-02T10:07:37.766Z,33.41
2023-04-02T10:10:16.671Z,33.53
2023-04-02T10:12:43.827Z,33.57
2023-04-02T10:15:20.271Z,33.10
2023-04-02T10:17:51.303Z,33.17
2023-04-02T10:20:20.009Z,32.66
2023-04-02T10:22:46.759Z,32.79
2023-04-02T10:25:15.000Z,32.82
2023-04-02T10:28:09.941Z,32.93
2023-04-02T10:30:52.460Z,32.75
2023-04-02T10:33:23.601Z,32.53
2023-04-02T10:36:09.001Z,32.97
2023-04-02T10:38:47.034Z,32.92
2023-04-02T10:41:52.701Z,33.06
2023-04-02T10:44:26.003Z,33.45
2023-04-02T10:46:52.462Z,33.50
2023-04-02T10:49:43.767Z,33.34
2023-04-02T10:52:46.437Z,33.45
2023-04-02T10:55:24.233Z,33.43
2023-04-02T10:57:50.827Z,33.65
2023-04-02T11:00:21.222Z,33.61
2023-04-02T11:03:00.193Z,33.57
2023-04-02T11:05:49.927Z,33.57
2023-04-02T11:08:24.720Z,33.81
2023-04-02T11:11:10.052Z,33.39
2023-04-02T11:14:01.845Z,33.80
2023-04-02T11:16:28.508Z,33.60
2023-04-02T11:19:17.199Z,33.70
2023-04-02T11:21:59.398Z,33.96
2023-04-02T11:24:32.697Z,33.99
2023-04-02T11:27:11.515Z,34.04
2023-04-02T11:29:41.538Z,34.16
2023-04-02T11:32:25.394Z,34.50
2023-04-02T11:35:05.987Z,33.93
2023-04-02T11:37:44.726Z,33.84
2023-04-02T11:40:11.591Z,34.37
2023-04-02T11:42:41.885Z,34.38
2023-04-02T11:45:23.531Z,34.95
2023-04-02T11:48:02.395Z,34.88
2023-04-02T11:50:32.382Z,34.96
2023-04-02T11:53:04.855Z,36.45
2023-04-02T11:55:35.047Z,36.03
2023-04-02T11:58:20.992Z,35.64
2023-04-02T12:01:05.326Z,35.13
2023-04-02T12:03:43.867Z,34.75
2023-04-02T12:06:19.418Z,34.92
2023-04-02T12:08:58.075Z,35.12
2023-04-02T12:11:38.198Z,35.27
2023-04-02T12:14:41.928Z,35.01
2023-04-02T12:17:27.421Z,34.60
2023-04-02T12:19:55.993Z,35.16
2023-04-02T12:22:28.013Z,35.72
2023-04-02T12:25:20.786Z,34.51
2023-04-02T12:27:47.589Z,34.58
2023-04-02T12:30:20.879Z,34.90
2023-04-02T12:32:47.893Z,34.83
2023-04-02T12:35:28.746Z,34.86
2023-04-02T12:37:55.421Z,34.89
2023-04-02T12:40:22.240Z,35.29
2023-04-02T12:42:48.863Z,35.53
2023-04-02T12:45:23.484Z,35.84
2023-04-02T12:47:50.120Z,35.70
2023-04-02T12:50:17.137Z,36.21
2023-04-02T12:52:44.754Z,36.95
2023-04-02T12:55:20.208Z,35.47
2023-04-02T12:57:49.941Z,35.09
2023-04-02T13:00:22.550Z,34.96
2023-04-02T13:02:50.494Z,34.91
2023-04-02T13:05:33.039Z,34.89
2023-04-02T13:07:59.634Z,35.08
2023-04-02T13:10:26.723Z,35.19
2023-04-02T13:13:00.685Z,34.81
2023-04-02T13:15:32.049Z,34.87
2023-04-02T13:18:04.843Z,34.80
2023-04-02T13:20:56.280Z,35.17
2023-04-02T13:23:29.244Z,34.92
2023-04-02T13:25:56.141Z,34.82
2023-04-02T13:28:22.767Z,34.97
2023-04-02T13:30:49.413Z,35.12
2023-04-02T13:33:16.654Z,35.24
2023-04-02T13:35:43.745Z,35.01
2023-04-02T13:38:10.571Z,35.08
2023-04-02T13:40:37.379Z,35.00
2023-04-02T13:43:05.283Z,34.80
2023-04-02T13:45:36.898Z,34.92
2023-04-02T13:48:05.913Z,34.85
2023-04-02T13:50:34.296Z,34.96
2023-04-02T13:53:07.786Z,35.12
2023-04-02T13:55:37.623Z,35.02
2023-04-02T13:58:04.857Z,35.39
2023-04-02T14:00:31.829Z,35.50
2023-04-02T14:03:05.653Z,34.63
2023-04-02T14:05:51.083Z,33.70
2023-04-02T14:08:22.832Z,33.79
2023-04-02T14:11:12.818Z,33.55
2023-04-02T14:13:45.055Z,34.09
2023-04-02T14:16:42.412Z,34.44
2023-04-02T14:19:28.048Z,34.86
2023-04-02T14:22:20.859Z,35.13
2023-04-02T14:25:15.289Z,35.25
2023-04-02T14:27:46.109Z,35.47
2023-04-02T14:30:37.462Z,35.08
2023-04-02T14:33:28.547Z,35.10
2023-04-02T14:36:00.116Z,34.96
2023-04-02T14:38:50.142Z,34.67
2023-04-02T14:41:24.890Z,33.89
2023-04-02T14:43:53.173Z,33.90
2023-04-02T14:46:19.939Z,33.97
2023-04-02T14:48:47.792Z,33.67
2023-04-02T14:51:29.394Z,33.68
2023-04-02T14:54:14.362Z,33.40
2023-04-02T14:56:47.482Z,33.78
2023-04-02T14:59:58.087Z,33.85
2023-04-02T15:02:46.560Z,34.26
2023-04-02T15:05:28.209Z,34.36
2023-04-02T15:08:01.579Z,34.43
2023-04-02T15:10:32.742Z,34.78
2023-04-02T15:13:00.527Z,34.95
2023-04-02T15:15:56.513Z,35.12
2023-04-02T15:18:23.401Z,35.00
2023-04-02T15:21:10.327Z,35.64
2023-04-02T15:24:06.286Z,35.63
2023-04-02T15:26:46.309Z,35.52
2023-04-02T15:29:36.999Z,35.68
2023-04-02T15:32:29.726Z,35.55
2023-04-02T15:35:08.541Z,35.60
2023-04-02T15:37:59.411Z,35.70
2023-04-02T15:40:44.235Z,35.57
2023-04-02T15:43:19.207Z,35.88
2023-04-02T15:46:07.507Z,35.99
2023-04-02T15:48:39.957Z,36.03
2023-04-02T15:51:35.241Z,35.88
2023-04-02T15:54:21.040Z,36.30
2023-04-02T15:57:19.999Z,36.19
2023-04-02T15:59:52.536Z,36.06
2023-04-02T16:02:39.701Z,36.30
2023-04-02T16:05:18.302Z,36.12
2023-04-02T16:08:03.421Z,36.17
2023-04-02T16:10:41.961Z,36.15
2023-04-02T16:13:35.165Z,36.26
2023-04-02T16:16:12.288Z,35.79
2023-04-02T16:18:42.022Z,36.44
2023-04-02T16:21:08.730Z,36.22
2023-04-02T16:23:36.868Z,36.08
2023-04-02T16:26:24.155Z,35.95
2023-04-02T16:29:19.291Z,36.33
2023-04-02T16:31:57.172Z,36.48
2023-04-02T16:35:01.812Z,36.23
2023-04-02T16:37:44.259Z,36.32
2023-04-02T16:40:26.172Z,36.39
2023-04-02T16:43:41.184Z,36.30
2023-04-02T16:46:11.775Z,35.84
2023-04-02T16:48:56.325Z,35.44
2023-04-02T16:51:47.504Z,34.01
2023-04-02T16:54:28.950Z,34.60
2023-04-02T16:57:20.623Z,35.12
2023-04-02T17:00:15.396Z,35.21
2023-04-02T17:02:49.155Z,35.52
2023-04-02T17:05:24.875Z,35.60
2023-04-02T17:07:51.750Z,35.52
2023-04-02T17:10:45.289Z,35.89
2023-04-02T17:13:18.878Z,35.75
2023-04-02T17:15:50.499Z,35.97
2023-04-02T17:18:19.972Z,35.83
2023-04-02T17:20:50.098Z,35.82
2023-04-02T17:23:17.687Z,35.86
2023-04-02T17:25:57.169Z,35.82
2023-04-02T17:28:28.800Z,35.86
2023-04-02T17:30:59.046Z,35.65
2023-04-02T17:33:27.483Z,35.82
2023-04-02T17:35:59.993Z,35.87
2023-04-02T17:38:44.756Z,37.24
2023-04-02T17:41:44.436Z,36.68
2023-04-02T17:44:38.980Z,36.54
2023-04-02T17:47:20.013Z,36.56
2023-04-02T17:50:05.529Z,36.46
2023-04-02T17:52:42.076Z,35.98
2023-04-02T17:55:46.233Z,35.81
2023-04-02T17:58:31.346Z,35.51
2023-04-02T18:01:10.624Z,35.42
2023-04-02T18:04:08.368Z,35.32
2023-04-02T18:06:55.276Z,34.50
2023-04-02T18:09:39.647Z,34.46
2023-04-02T18:12:43.916Z,34.98
2023-04-02T18:15:37.497Z,34.73
2023-04-02T18:18:17.329Z,34.46
2023-04-02T18:21:13.495Z,34.52
2023-04-02T18:24:02.445Z,34.56
2023-04-02T18:26:47.813Z,34.62
2023-04-02T18:29:30.220Z,34.58
2023-04-02T18:32:23.744Z,34.45
2023-04-02T18:35:08.112Z,34.61
2023-04-02T18:38:04.185Z,34.51
2023-04-02T18:40:38.216Z,34.64
2023-04-02T18:43:21.187Z,34.54
2023-04-02T18:45:53.921Z,34.59
2023-04-02T18:48:23.378Z,34.58
2023-04-02T18:50:50.756Z,35.01
2023-04-02T18:53:18.732Z,34.88
2023-04-02T18:55:52.546Z,34.68
2023-04-02T18:58:27.376Z,34.85
2023-04-02T19:00:57.265Z,34.75
2023-04-02T19:03:33.012Z,34.56
2023-04-02T19:06:09.192Z,34.73
2023-04-02T19:09:00.279Z,34.90
2023-04-02T19:11:31.163Z,34.82
2023-04-02T19:14:05.386Z,34.81
2023-04-02T19:17:04.241Z,34.57
2023-04-02T19:19:43.441Z,34.49
2023-04-02T19:22:17.097Z,34.44
2023-04-02T19:24:49.439Z,34.23
2023-04-02T19:27:34.295Z,34.48
2023-04-02T19:30:10.113Z,34.43
2023-04-02T19:32:59.392Z,34.50
2023-04-02T19:35:36.402Z,34.46
2023-04-02T19:38:13.652Z,34.49
2023-04-02T19:41:13.034Z,34.84
2023-04-02T19:43:40.331Z,34.69
2023-04-02T19:46:08.182Z,34.91
2023-04-02T19:49:05.943Z,34.78
2023-04-02T19:51:33.697Z,34.87
2023-04-02T19:54:00.640Z,34.90
2023-04-02T19:56:28.169Z,34.59
2023-04-02T19:58:56.640Z,34.55
2023-04-02T20:01:23.457Z,34.80
2023-04-02T20:03:50.172Z,34.78
2023-04-02T20:06:17.047Z,34.81
2023-04-02T20:08:43.772Z,34.54
2023-04-02T20:11:10.412Z,34.58
2023-04-02T20:13:37.064Z,34.86
2023-04-02T20:16:04.521Z,34.97
2023-04-02T20:18:31.939Z,34.80
2023-04-02T20:20:58.556Z,34.73
2023-04-02T20:23:25.389Z,35.13
2023-04-02T20:25:53.166Z,34.78
2023-04-02T20:28:23.552Z,34.77
2023-04-02T20:30:50.826Z,34.78
2023-04-02T20:33:18.440Z,34.91
2023-04-02T20:35:45.353Z,35.01
2023-04-02T20:38:11.959Z,34.88
2023-04-02T20:40:40.827Z,35.02
2023-04-02T20:43:08.810Z,35.16
2023-04-02T20:45:35.844Z,34.73
2023-04-02T20:48:02.612Z,35.06
2023-04-02T20:50:29.429Z,34.80
2023-04-02T20:52:58.203Z,34.88
2023-04-02T20:55:24.803Z,34.85
2023-04-02T20:57:51.484Z,34.89
2023-04-02T21:00:18.385Z,34.99
2023-04-02T21:02:45.030Z,34.66
2023-04-02T21:05:11.720Z,34.98
2023-04-02T21:07:38.411Z,34.58
2023-04-02T21:10:05.533Z,34.78
2023-04-02T21:12:32.152Z,34.86
2023-04-02T21:15:01.757Z,34.84
2023-04-02T21:17:29.615Z,34.99
2023-04-02T21:19:56.368Z,34.90
2023-04-02T21:22:23.025Z,34.94
2023-04-02T21:24:49.673Z,35.16
2023-04-02T21:27:16.778Z,34.91
2023-04-02T21:29:43.382Z,34.95
2023-04-02T21:32:20.738Z,35.14
2023-04-02T21:34:48.227Z,34.76
2023-04-02T21:37:14.875Z,35.16
2023-04-02T21:39:41.553Z,35.14
2023-04-02T21:42:08.271Z,34.92
2023-04-02T21:44:34.936Z,34.97
2023-04-02T21:47:01.608Z,35.21
2023-04-02T21:49:29.625Z,35.20
2023-04-02T21:51:56.170Z,35.15
2023-04-02T21:54:22.894Z,34.95
2023-04-02T21:56:49.817Z,34.99
2023-04-02T21:59:16.868Z,35.08
2023-04-02T22:01:45.391Z,35.29
2023-04-02T22:04:16.505Z,35.08
2023-04-02T22:06:43.261Z,35.19
2023-04-02T22:09:12.089Z,35.26
2023-04-02T22:11:41.009Z,35.00
2023-04-02T22:14:07.622Z,35.24
2023-04-02T22:16:35.480Z,35.15
2023-04-02T22:19:03.623Z,35.03
2023-04-02T22:21:30.633Z,34.82
2023-04-02T22:23:59.552Z,35.08
2023-04-02T22:26:27.407Z,34.95
2023-04-02T22:28:53.939Z,35.17
2023-04-02T22:31:22.670Z,34.89
2023-04-02T22:33:50.313Z,34.94
2023-04-02T22:36:17.065Z,34.84
2023-04-02T22:38:43.882Z,34.96
2023-04-02T22:41:22.101Z,35.00
2023-04-02T22:43:48.820Z,35.15
2023-04-02T22:46:16.896Z,34.87
2023-04-02T22:48:43.782Z,34.92
2023-04-02T22:51:11.373Z,35.27
2023-04-02T22:53:38.054Z,34.75
2023-04-02T22:56:26.616Z,34.91
2023-04-02T22:58:53.142Z,35.07
2023-04-02T23:01:22.743Z,34.97
2023-04-02T23:03:49.426Z,35.06
2023-04-02T23:06:17.068Z,35.14
2023-04-02T23:08:43.822Z,34.98
2023-04-02T23:11:15.906Z,35.01
2023-04-02T23:13:42.458Z,34.98
2023-04-02T23:16:11.242Z,35.09
2023-04-02T23:18:38.036Z,35.12
2023-04-02T23:21:04.849Z,35.10
2023-04-02T23:23:31.620Z,35.25
2023-04-02T23:26:08.129Z,34.96
2023-04-02T23:28:34.827Z,35.13
2023-04-02T23:31:02.665Z,35.10
2023-04-02T23:33:29.261Z,34.81
2023-04-02T23:35:55.870Z,35.04
2023-04-02T23:38:22.571Z,34.90
2023-04-02T23:40:49.123Z,34.92
2023-04-02T23:43:15.679Z,34.94
2023-04-02T23:45:46.287Z,34.97
2023-04-02T23:48:12.812Z,35.06
2023-04-02T23:50:39.400Z,34.94
2023-04-02T23:53:05.914Z,35.12
2023-04-02T23:55:32.574Z,35.05
2023-04-02T23:57:59.093Z,35.07
